Time;durP1;ratioP1;P1;durP2;ratioP2;P2;SDS_P1;SDS_P2;PMS_P1;PMS_P2;Temp;Humidity;BMP_temperature;BMP_pressure;BME280_temperature;BME280_humidity;BME280_pressure;Samples;Min_cycle;Max_cycle;Signal;HPM_P1;HPM_P2
2022/06/10 00:00:03;;;;;;;32.95;21.00;;;;;;;;;;4915341;28;20443;-65
2022/06/10 00:02:30;;;;;;;25.52;19.63;;;;;;;;;;4932402;28;20031;-65
2022/06/10 00:04:56;;;;;;;30.45;20.17;;;;;;;;;;4932184;29;20446;-65
2022/06/10 00:07:22;;;;;;;31.70;21.42;;;;;;;;;;4932260;28;20028;-65
2022/06/10 00:09:48;;;;;;;32.90;22.05;;;;;;;;;;4932285;29;20055;-65
2022/06/10 00:12:14;;;;;;;32.00;21.95;;;;;;;;;;4932249;28;20495;-64
2022/06/10 00:14:39;;;;;;;29.50;21.05;;;;;;;;;;4932179;29;20020;-64
2022/06/10 00:17:06;;;;;;;28.23;20.13;;;;;;;;;;4932185;29;20032;-64
2022/06/10 00:19:32;;;;;;;29.35;19.40;;;;;;;;;;4931956;28;20047;-65
2022/06/10 00:21:58;;;;;;;29.13;19.77;;;;;;;;;;4932504;28;20028;-65
2022/06/10 00:24:24;;;;;;;29.23;19.98;;;;;;;;;;4932055;28;20032;-65
2022/06/10 00:26:50;;;;;;;30.85;19.95;;;;;;;;;;4915205;28;20031;-65
2022/06/10 00:29:16;;;;;;;29.55;19.48;;;;;;;;;;4932132;29;20027;-65
2022/06/10 00:31:42;;;;;;;25.75;19.35;;;;;;;;;;4931845;28;20024;-65
2022/06/10 00:34:08;;;;;;;26.23;18.55;;;;;;;;;;4931777;29;20035;-65
2022/06/10 00:36:35;;;;;;;26.80;18.30;;;;;;;;;;4915914;28;20133;-65
2022/06/10 00:39:01;;;;;;;25.60;18.48;;;;;;;;;;4914512;28;20031;-65
2022/06/10 00:41:28;;;;;;;31.00;20.90;;;;;;;;;;4931660;29;20111;-65
2022/06/10 00:43:54;;;;;;;26.88;18.52;;;;;;;;;;4931805;29;20032;-65
2022/06/10 00:46:22;;;;;;;29.33;19.70;;;;;;;;;;4935131;28;20030;-65
2022/06/10 00:49:00;;;;;;;28.00;20.05;;;;;;;;;;4935001;29;20038;-65
2022/06/10 00:51:36;;;;;;;26.83;19.92;;;;;;;;;;4935117;29;20039;-65
2022/06/10 00:54:07;;;;;;;30.73;20.33;;;;;;;;;;4935275;28;20028;-65
2022/06/10 00:56:34;;;;;;;27.88;20.77;;;;;;;;;;4935206;28;20027;-66
2022/06/10 00:59:14;;;;;;;25.80;20.00;;;;;;;;;;4917590;28;20114;-65
2022/06/10 01:01:40;;;;;;;31.70;19.27;;;;;;;;;;4935299;28;20078;-65
2022/06/10 01:04:07;;;;;;;26.75;18.55;;;;;;;;;;4934775;29;20032;-65
2022/06/10 01:06:33;;;;;;;29.38;19.73;;;;;;;;;;4934692;28;20074;-65
2022/06/10 01:09:01;;;;;;;28.83;18.35;;;;;;;;;;4934422;28;20416;-64
2022/06/10 01:11:47;;;;;;;26.85;18.95;;;;;;;;;;4934893;29;20102;-65
2022/06/10 01:14:36;;;;;;;28.20;19.67;;;;;;;;;;4917707;28;20085;-65
2022/06/10 01:17:20;;;;;;;32.38;21.25;;;;;;;;;;4917819;28;20039;-65
2022/06/10 01:19:49;;;;;;;28.58;19.48;;;;;;;;;;4934635;29;20024;-65
2022/06/10 01:22:15;;;;;;;;;;;;;;;;;;4917965;28;20030;-65
2022/06/10 01:24:44;;;;;;;27.33;20.02;;;;;;;;;;4950038;23;19923;-63
2022/06/10 01:29:55;;;;;;;27.02;18.55;;;;;;;;;;4953899;29;20393;-63
2022/06/10 01:32:31;;;;;;;30.13;18.58;;;;;;;;;;4953904;29;20081;-63
2022/06/10 01:35:20;;;;;;;29.23;19.50;;;;;;;;;;4953733;29;20089;-63
2022/06/10 01:37:46;;;;;;;;;;;;;;;;;;4953928;28;20020;-63
2022/06/10 01:40:24;;;;;;;26.65;18.17;;;;;;;;;;4953729;28;19917;-63
2022/06/10 01:42:55;;;;;;;27.13;18.35;;;;;;;;;;4936917;28;20399;-62
2022/06/10 01:45:21;;;;;;;26.60;18.10;;;;;;;;;;4936263;28;20085;-63
2022/06/10 01:47:47;;;;;;;28.33;18.42;;;;;;;;;;4936270;28;20032;-63
2022/06/10 01:50:16;;;;;;;28.75;18.05;;;;;;;;;;4954176;28;20038;-60
2022/06/10 01:52:54;;;;;;;25.80;19.23;;;;;;;;;;4936708;28;20023;-63
2022/06/10 01:55:29;;;;;;;27.80;17.90;;;;;;;;;;4953032;28;20049;-63
2022/06/10 01:57:58;;;;;;;28.02;19.67;;;;;;;;;;4953100;28;20034;-63
2022/06/10 02:00:25;;;;;;;26.35;19.58;;;;;;;;;;4953463;29;20058;-63
2022/06/10 02:03:04;;;;;;;30.70;20.33;;;;;;;;;;4953620;28;20027;-63
2022/06/10 02:05:37;;;;;;;30.25;21.55;;;;;;;;;;4936251;28;20455;-63
2022/06/10 02:08:27;;;;;;;32.15;22.40;;;;;;;;;;4952979;28;20450;-63
2022/06/10 02:10:53;;;;;;;31.10;23.02;;;;;;;;;;4936386;28;20031;-63
2022/06/10 02:13:24;;;;;;;30.27;23.92;;;;;;;;;;4953312;28;20035;-63
2022/06/10 02:15:52;;;;;;;35.08;25.02;;;;;;;;;;4953199;29;20030;-63
2022/06/10 02:18:38;;;;;;;31.38;23.23;;;;;;;;;;4953022;28;20027;-63
2022/06/10 02:21:13;;;;;;;35.78;26.05;;;;;;;;;;4936361;29;20057;-63
2022/06/10 02:23:42;;;;;;;31.95;24.50;;;;;;;;;;4953083;28;20020;-63
2022/06/10 02:26:08;;;;;;;31.58;24.50;;;;;;;;;;4952970;28;20027;-63
2022/06/10 02:28:37;;;;;;;33.65;24.27;;;;;;;;;;4952825;28;20035;-63
2022/06/10 02:31:12;;;;;;;37.78;24.55;;;;;;;;;;4935903;28;20031;-63
2022/06/10 02:33:39;;;;;;;33.20;23.70;;;;;;;;;;4953016;28;20062;-63
2022/06/10 02:36:04;;;;;;;35.45;24.88;;;;;;;;;;4952980;29;20024;-61
2022/06/10 02:38:40;;;;;;;36.60;23.85;;;;;;;;;;4935353;28;20030;-62
2022/06/10 02:41:18;;;;;;;37.03;26.00;;;;;;;;;;4935577;28;20031;-63
2022/06/10 02:43:59;;;;;;;33.70;24.02;;;;;;;;;;4952925;29;20034;-63
2022/06/10 02:46:33;;;;;;;35.13;25.60;;;;;;;;;;4952566;28;20070;-63
2022/06/10 02:49:16;;;;;;;37.63;24.33;;;;;;;;;;4935143;28;20038;-63
2022/06/10 02:51:43;;;;;;;43.80;25.65;;;;;;;;;;4952568;28;20074;-62
2022/06/10 02:54:13;;;;;;;39.33;25.92;;;;;;;;;;4935437;28;20042;-63
2022/06/10 02:56:39;;;;;;;35.83;25.10;;;;;;;;;;4953038;28;20491;-63
2022/06/10 03:01:57;;;;;;;31.33;24.45;;;;;;;;;;4952928;29;20035;-62
2022/06/10 03:04:23;;;;;;;30.85;23.70;;;;;;;;;;4952551;29;20023;-63
2022/06/10 03:07:08;;;;;;;34.13;25.77;;;;;;;;;;4934391;28;20089;-63
2022/06/10 03:09:37;;;;;;;33.90;25.05;;;;;;;;;;4952325;28;20118;-63
2022/06/10 03:12:18;;;;;;;37.88;25.58;;;;;;;;;;4952486;28;20442;-63
2022/06/10 03:14:47;;;;;;;34.92;24.83;;;;;;;;;;4952265;28;20030;-63
2022/06/10 03:17:16;;;;;;;32.97;25.88;;;;;;;;;;4952107;28;20623;-63
2022/06/10 03:19:58;;;;;;;34.45;25.17;;;;;;;;;;4952416;28;20038;-63
2022/06/10 03:22:42;;;;;;;37.13;25.60;;;;;;;;;;4952492;28;20070;-63
2022/06/10 03:25:08;;;;;;;34.30;25.33;;;;;;;;;;4934880;28;20034;-63
2022/06/10 03:27:37;;;;;;;32.42;25.52;;;;;;;;;;4951984;28;20027;-63
2022/06/10 03:30:07;;;;;;;33.72;26.40;;;;;;;;;;4952208;29;20023;-63
2022/06/10 03:32:38;;;;;;;34.47;25.13;;;;;;;;;;4952412;28;20019;-64
2022/06/10 03:35:10;;;;;;;31.95;25.20;;;;;;;;;;4951791;29;20023;-63
2022/06/10 03:37:38;;;;;;;29.75;24.25;;;;;;;;;;4951955;29;20475;-63
2022/06/10 03:40:04;;;;;;;32.85;25.65;;;;;;;;;;4934778;28;20026;-63
2022/06/10 03:42:30;;;;;;;30.50;23.48;;;;;;;;;;4952053;28;20019;-61
2022/06/10 03:44:57;;;;;;;33.03;23.10;;;;;;;;;;4934721;28;20015;-63
2022/06/10 03:47:33;;;;;;;32.45;23.83;;;;;;;;;;4952133;29;20077;-62
2022/06/10 03:50:07;;;;;;;31.10;22.98;;;;;;;;;;4934613;28;20035;-63
2022/06/10 03:52:35;;;;;;;29.38;22.70;;;;;;;;;;4951922;28;20027;-63
2022/06/10 03:55:01;;;;;;;36.72;22.23;;;;;;;;;;4951475;29;20023;-63
2022/06/10 03:57:27;;;;;;;29.92;21.23;;;;;;;;;;4951529;29;20036;-63
2022/06/10 03:59:53;;;;;;;31.35;21.75;;;;;;;;;;4934346;28;20036;-63
2022/06/10 04:02:19;;;;;;;29.65;22.17;;;;;;;;;;4951647;29;20098;-64
2022/06/10 04:04:45;;;;;;;28.63;19.98;;;;;;;;;;4951360;28;20441;-63
2022/06/10 04:07:13;;;;;;;29.58;21.02;;;;;;;;;;4951694;28;20390;-61
2022/06/10 04:09:39;;;;;;;28.97;20.60;;;;;;;;;;4934434;28;20517;-63
2022/06/10 04:12:05;;;;;;;29.83;21.25;;;;;;;;;;4951326;28;20502;-63
2022/06/10 04:14:31;;;;;;;28.60;20.42;;;;;;;;;;4951324;28;20034;-63
2022/06/10 04:16:58;;;;;;;27.20;19.70;;;;;;;;;;4934218;28;20031;-63
2022/06/10 04:19:24;;;;;;;24.80;18.85;;;;;;;;;;4933538;28;20081;-62
2022/06/10 04:21:50;;;;;;;27.40;19.63;;;;;;;;;;4951959;28;20062;-63
2022/06/10 04:24:16;;;;;;;25.40;18.42;;;;;;;;;;4951772;28;20126;-63
2022/06/10 04:26:42;;;;;;;24.92;18.83;;;;;;;;;;4951914;29;20023;-63
2022/06/10 04:29:09;;;;;;;26.20;18.48;;;;;;;;;;4934100;28;20028;-63
2022/06/10 04:31:35;;;;;;;26.58;18.30;;;;;;;;;;4951321;28;20027;-62
2022/06/10 04:34:01;;;;;;;27.80;18.48;;;;;;;;;;4951192;28;20038;-63
2022/06/10 04:36:29;;;;;;;27.95;17.88;;;;;;;;;;4950847;29;20035;-63
2022/06/10 04:38:55;;;;;;;27.48;19.15;;;;;;;;;;4951010;28;20107;-63
2022/06/10 04:41:21;;;;;;;28.08;17.65;;;;;;;;;;4933864;28;20123;-63
2022/06/10 04:43:47;;;;;;;24.90;17.98;;;;;;;;;;4933624;28;20484;-58
2022/06/10 04:46:33;;;;;;;25.58;17.13;;;;;;;;;;4933795;28;20118;-63
2022/06/10 04:48:59;;;;;;;25.27;17.55;;;;;;;;;;4933249;29;20038;-63
2022/06/10 04:51:25;;;;;;;26.45;18.75;;;;;;;;;;4933632;28;20023;-63
2022/06/10 04:53:52;;;;;;;25.13;17.33;;;;;;;;;;4950953;28;20429;-63
2022/06/10 04:56:18;;;;;;;27.02;16.42;;;;;;;;;;4933508;28;20035;-63
2022/06/10 04:58:44;;;;;;;28.23;17.00;;;;;;;;;;4950571;28;20028;-63
2022/06/10 05:01:10;;;;;;;25.13;16.38;;;;;;;;;;4933706;28;20027;-62
2022/06/10 05:03:36;;;;;;;24.65;17.05;;;;;;;;;;4950821;28;20023;-62
2022/06/10 05:06:03;;;;;;;28.02;16.85;;;;;;;;;;4951086;28;20031;-62
2022/06/10 05:08:29;;;;;;;24.98;15.88;;;;;;;;;;4933248;28;20059;-60
2022/06/10 05:10:54;;;;;;;23.92;16.45;;;;;;;;;;4933281;28;20082;-63
2022/06/10 05:13:21;;;;;;;24.10;16.65;;;;;;;;;;4950799;28;20390;-63
2022/06/10 05:15:47;;;;;;;22.67;15.77;;;;;;;;;;4950672;28;20055;-60
2022/06/10 05:18:15;;;;;;;22.63;15.27;;;;;;;;;;4950631;28;20062;-63
2022/06/10 05:20:41;;;;;;;24.05;15.65;;;;;;;;;;4950733;29;20081;-62
2022/06/10 05:23:08;;;;;;;25.08;15.10;;;;;;;;;;4950631;28;20031;-63
2022/06/10 05:25:35;;;;;;;24.50;14.30;;;;;;;;;;4950460;29;20065;-63
2022/06/10 05:28:01;;;;;;;24.55;15.60;;;;;;;;;;4950100;29;20027;-63
2022/06/10 05:30:30;;;;;;;23.50;14.68;;;;;;;;;;4951074;28;20123;-63
2022/06/10 05:32:56;;;;;;;24.30;16.00;;;;;;;;;;4936357;28;20502;-63
2022/06/10 05:35:22;;;;;;;24.25;15.25;;;;;;;;;;4953550;28;20031;-63
2022/06/10 05:37:49;;;;;;;26.50;14.75;;;;;;;;;;4954021;28;20031;-63
2022/06/10 05:40:16;;;;;;;22.65;15.02;;;;;;;;;;4953451;28;20098;-63
2022/06/10 05:42:43;;;;;;;25.30;14.55;;;;;;;;;;4953521;29;20031;-63
2022/06/10 05:45:10;;;;;;;26.98;15.23;;;;;;;;;;4953716;28;20050;-63
2022/06/10 05:47:36;;;;;;;24.80;14.68;;;;;;;;;;4936000;28;20024;-63
2022/06/10 05:50:05;;;;;;;23.80;14.32;;;;;;;;;;4953380;28;20051;-63
2022/06/10 05:52:30;;;;;;;;;;;;;;;;;;4936719;28;20059;-63
2022/06/10 05:54:57;;;;;;;21.58;13.77;;;;;;;;;;4953486;28;19918;-63
2022/06/10 05:57:24;;;;;;;23.77;14.88;;;;;;;;;;4935921;28;20037;-65
2022/06/10 05:59:52;;;;;;;23.00;13.82;;;;;;;;;;4936653;28;20028;-63
2022/06/10 06:02:18;;;;;;;21.35;13.60;;;;;;;;;;4953570;29;20073;-63
2022/06/10 06:04:44;;;;;;;22.98;14.13;;;;;;;;;;4953483;28;20027;-63
2022/06/10 06:07:11;;;;;;;20.63;12.32;;;;;;;;;;4953328;28;20027;-61
2022/06/10 06:09:37;;;;;;;24.48;13.48;;;;;;;;;;4953016;28;20122;-63
2022/06/10 06:12:03;;;;;;;25.00;13.10;;;;;;;;;;4953442;29;20069;-64
2022/06/10 06:14:29;;;;;;;22.88;12.75;;;;;;;;;;4953427;28;20023;-63
2022/06/10 06:16:57;;;;;;;24.02;13.35;;;;;;;;;;4953176;28;20032;-63
2022/06/10 06:19:24;;;;;;;23.98;12.40;;;;;;;;;;4953166;28;20027;-64
2022/06/10 06:21:50;;;;;;;24.58;13.13;;;;;;;;;;4953156;29;20027;-63
2022/06/10 06:24:16;;;;;;;22.50;12.70;;;;;;;;;;4935660;28;20030;-63
2022/06/10 06:26:43;;;;;;;22.67;12.82;;;;;;;;;;4952976;29;20027;-64
2022/06/10 06:29:09;;;;;;;21.15;12.73;;;;;;;;;;4952956;28;20031;-63
2022/06/10 06:31:35;;;;;;;21.85;12.07;;;;;;;;;;4953350;28;20031;-63
2022/06/10 06:34:01;;;;;;;21.95;13.20;;;;;;;;;;4935524;28;20081;-63
2022/06/10 06:36:28;;;;;;;23.25;13.25;;;;;;;;;;4952715;28;20035;-63
2022/06/10 06:38:54;;;;;;;21.55;12.95;;;;;;;;;;4952120;29;20110;-63
2022/06/10 06:41:21;;;;;;;20.67;13.00;;;;;;;;;;4951740;28;20070;-60
2022/06/10 06:43:48;;;;;;;27.13;13.27;;;;;;;;;;4947932;29;20042;-63
2022/06/10 06:46:15;;;;;;;21.27;12.73;;;;;;;;;;4948257;28;20066;-63
2022/06/10 06:48:42;;;;;;;22.30;11.88;;;;;;;;;;4952255;28;20106;-62
2022/06/10 06:51:08;;;;;;;21.48;11.98;;;;;;;;;;4942315;28;20349;-62
2022/06/10 06:53:34;;;;;;;26.73;12.48;;;;;;;;;;4916314;28;20063;-63
2022/06/10 06:56:06;;;;;;;24.05;11.88;;;;;;;;;;4916438;28;20024;-62
2022/06/10 06:58:33;;;;;;;21.35;11.98;;;;;;;;;;4917125;28;20073;-62
2022/06/10 07:00:59;;;;;;;22.67;11.50;;;;;;;;;;4952450;29;20069;-62
2022/06/10 07:03:25;;;;;;;27.08;11.57;;;;;;;;;;4952509;29;20042;-62
2022/06/10 07:05:52;;;;;;;25.02;12.25;;;;;;;;;;4952161;28;20023;-62
2022/06/10 07:08:19;;;;;;;25.52;12.07;;;;;;;;;;4952205;28;20031;-63
2022/06/10 07:10:45;;;;;;;22.17;11.60;;;;;;;;;;4935360;28;20031;-63
2022/06/10 07:13:12;;;;;;;20.50;11.65;;;;;;;;;;4934957;28;20031;-63
2022/06/10 07:15:39;;;;;;;21.75;11.50;;;;;;;;;;4950728;28;20058;-62
2022/06/10 07:18:06;;;;;;;19.50;10.90;;;;;;;;;;4916258;28;20119;-62
2022/06/10 07:20:33;;;;;;;22.33;11.10;;;;;;;;;;4933384;28;20028;-62
2022/06/10 07:22:59;;;;;;;21.75;11.30;;;;;;;;;;4916575;28;20027;-61
2022/06/10 07:25:25;;;;;;;22.23;11.48;;;;;;;;;;4948631;23;20048;-62
2022/06/10 07:27:52;;;;;;;23.45;10.73;;;;;;;;;;4949893;29;20046;-62
2022/06/10 07:30:20;;;;;;;20.15;11.23;;;;;;;;;;4950423;29;20020;-61
2022/06/10 07:32:46;;;;;;;21.70;11.40;;;;;;;;;;4950601;29;20028;-61
2022/06/10 07:35:13;;;;;;;19.48;10.73;;;;;;;;;;4950183;29;20055;-61
2022/06/10 07:37:39;;;;;;;20.55;10.55;;;;;;;;;;4950064;29;20023;-61
2022/06/10 07:40:06;;;;;;;24.70;10.85;;;;;;;;;;4950189;29;20024;-62
2022/06/10 07:42:34;;;;;;;20.42;10.88;;;;;;;;;;4950010;28;20038;-61
2022/06/10 07:45:02;;;;;;;19.00;10.32;;;;;;;;;;4950363;28;20043;-61
2022/06/10 07:47:28;;;;;;;23.27;10.98;;;;;;;;;;4949907;28;20487;-62
2022/06/10 07:49:54;;;;;;;24.55;10.82;;;;;;;;;;4950007;28;20081;-61
2022/06/10 07:52:20;;;;;;;23.67;10.18;;;;;;;;;;4950588;28;20578;-61
2022/06/10 07:54:46;;;;;;;20.30;9.68;;;;;;;;;;4949600;28;20461;-61
2022/06/10 07:57:12;;;;;;;19.70;10.38;;;;;;;;;;4949750;28;20027;-61
2022/06/10 07:59:40;;;;;;;21.27;10.05;;;;;;;;;;4949961;28;20042;-61
2022/06/10 08:02:06;;;;;;;18.42;9.85;;;;;;;;;;4949883;28;20113;-61
2022/06/10 08:04:33;;;;;;;19.35;9.65;;;;;;;;;;4949964;28;20081;-61
2022/06/10 08:06:59;;;;;;;19.45;9.88;;;;;;;;;;4932759;28;20074;-61
2022/06/10 08:09:25;;;;;;;20.08;9.82;;;;;;;;;;4949677;29;20068;-61
2022/06/10 08:11:52;;;;;;;20.33;10.18;;;;;;;;;;4949805;28;20084;-62
2022/06/10 08:14:18;;;;;;;21.13;11.48;;;;;;;;;;4949926;28;20031;-62
2022/06/10 08:16:44;;;;;;;20.50;9.70;;;;;;;;;;4949575;28;20036;-61
2022/06/10 08:19:10;;;;;;;20.60;10.45;;;;;;;;;;4949508;28;20039;-62
2022/06/10 08:24:21;;;;;;;21.38;10.10;;;;;;;;;;4949804;29;20069;-61
2022/06/10 08:26:47;;;;;;;19.48;10.10;;;;;;;;;;4949541;28;20377;-60
2022/06/10 08:29:13;;;;;;;18.05;10.27;;;;;;;;;;4949403;28;20046;-61
2022/06/10 08:31:39;;;;;;;20.38;10.77;;;;;;;;;;4949524;28;20027;-61
2022/06/10 08:34:05;;;;;;;21.10;10.80;;;;;;;;;;4949800;28;20039;-62
2022/06/10 08:36:33;;;;;;;24.08;9.85;;;;;;;;;;4949631;28;20047;-61
2022/06/10 08:39:00;;;;;;;23.07;10.23;;;;;;;;;;4949404;28;20047;-62
2022/06/10 08:41:41;;;;;;;21.67;10.45;;;;;;;;;;4950365;28;20027;-58
2022/06/10 08:44:07;;;;;;;24.02;10.98;;;;;;;;;;4935906;28;20028;-59
2022/06/10 08:46:36;;;;;;;21.98;10.88;;;;;;;;;;4931810;29;20027;-60
2022/06/10 08:49:08;;;;;;;21.00;9.70;;;;;;;;;;4931743;29;20119;-59
2022/06/10 08:51:54;;;;;;;22.05;9.90;;;;;;;;;;4930866;29;20086;-59
2022/06/10 08:54:26;;;;;;;22.90;11.68;;;;;;;;;;4933241;29;20118;-60
2022/06/10 08:56:54;;;;;;;21.13;10.45;;;;;;;;;;4930220;29;20430;-59
2022/06/10 08:59:37;;;;;;;20.70;11.38;;;;;;;;;;4930105;29;20046;-59
2022/06/10 09:02:10;;;;;;;21.45;11.05;;;;;;;;;;4930350;29;20020;-57
2022/06/10 09:04:52;;;;;;;17.33;10.43;;;;;;;;;;4930201;29;20099;-59
2022/06/10 09:07:31;;;;;;;20.90;11.10;;;;;;;;;;4933352;29;20030;-60
2022/06/10 09:09:58;;;;;;;19.77;10.63;;;;;;;;;;4933196;29;20039;-60
2022/06/10 09:12:27;;;;;;;20.17;11.20;;;;;;;;;;4933453;29;20036;-60
2022/06/10 09:14:57;;;;;;;18.50;11.30;;;;;;;;;;4933278;29;20077;-60
2022/06/10 09:17:33;;;;;;;21.70;10.85;;;;;;;;;;4932964;29;20078;-60
2022/06/10 09:20:19;;;;;;;19.33;10.95;;;;;;;;;;4933195;29;20503;-58
2022/06/10 09:23:00;;;;;;;24.45;12.15;;;;;;;;;;4915970;29;20027;-58
2022/06/10 09:25:37;;;;;;;22.33;11.30;;;;;;;;;;4916018;29;20027;-58
2022/06/10 09:28:03;;;;;;;19.42;10.95;;;;;;;;;;4932814;29;20019;-58
2022/06/10 09:30:44;;;;;;;23.27;10.68;;;;;;;;;;4933177;29;20099;-57
2022/06/10 09:33:10;;;;;;;21.55;10.43;;;;;;;;;;4933051;29;20055;-59
2022/06/10 09:35:55;;;;;;;21.15;10.60;;;;;;;;;;4932842;29;20086;-58
2022/06/10 09:38:27;;;;;;;19.83;10.70;;;;;;;;;;4932596;29;20032;-60
2022/06/10 09:40:56;;;;;;;21.77;11.50;;;;;;;;;;4932965;29;20150;-60
2022/06/10 09:43:43;;;;;;;19.55;9.90;;;;;;;;;;4932680;29;20031;-60
2022/06/10 09:46:10;;;;;;;20.50;10.80;;;;;;;;;;4915523;29;20077;-59
2022/06/10 09:48:43;;;;;;;22.23;10.52;;;;;;;;;;4932806;29;20034;-59
2022/06/10 09:51:27;;;;;;;19.85;11.18;;;;;;;;;;4932695;29;20579;-59
2022/06/10 09:53:53;;;;;;;21.38;10.93;;;;;;;;;;4932895;29;20039;-57
2022/06/10 09:56:19;;;;;;;17.75;10.32;;;;;;;;;;4933362;29;20027;-58
2022/06/10 09:59:02;;;;;;;19.17;10.43;;;;;;;;;;4933111;29;20066;-58
2022/06/10 10:01:34;;;;;;;19.42;10.30;;;;;;;;;;4934808;29;20074;-57
2022/06/10 10:04:09;;;;;;;19.27;10.70;;;;;;;;;;4933846;29;20024;-57
2022/06/10 10:06:38;;;;;;;17.65;10.43;;;;;;;;;;4915446;29;20100;-58
2022/06/10 10:09:04;;;;;;;20.38;10.15;;;;;;;;;;4932330;29;20089;-57
2022/06/10 10:11:44;;;;;;;17.48;10.20;;;;;;;;;;4932377;29;20110;-59
2022/06/10 10:14:31;;;;;;;19.73;10.50;;;;;;;;;;4932640;29;20032;-64
2022/06/10 10:17:06;;;;;;;19.15;9.95;;;;;;;;;;4932065;29;20024;-60
2022/06/10 10:19:50;;;;;;;21.17;10.85;;;;;;;;;;4931918;29;20039;-61
2022/06/10 10:22:16;;;;;;;16.30;10.10;;;;;;;;;;4932547;29;20056;-59
2022/06/10 10:24:44;;;;;;;18.70;10.32;;;;;;;;;;4931753;29;20484;-58
2022/06/10 10:27:21;;;;;;;18.20;10.23;;;;;;;;;;4931352;29;20035;-55
2022/06/10 10:29:50;;;;;;;17.52;10.23;;;;;;;;;;4932221;29;20307;-60
2022/06/10 10:32:24;;;;;;;21.50;11.43;;;;;;;;;;4932213;29;20480;-58
2022/06/10 10:34:52;;;;;;;18.13;10.70;;;;;;;;;;4915287;29;20472;-60
2022/06/10 10:37:22;;;;;;;18.35;9.88;;;;;;;;;;4932323;29;20546;-62
2022/06/10 10:39:53;;;;;;;19.60;11.10;;;;;;;;;;4932468;29;20031;-61
2022/06/10 10:42:21;;;;;;;19.50;11.18;;;;;;;;;;4932236;29;20098;-60
2022/06/10 10:44:50;;;;;;;18.63;11.50;;;;;;;;;;4932604;29;20023;-62
2022/06/10 10:47:21;;;;;;;19.50;11.40;;;;;;;;;;4931908;29;20027;-61
2022/06/10 10:49:50;;;;;;;19.98;10.95;;;;;;;;;;4914851;29;20436;-61
2022/06/10 10:52:27;;;;;;;17.15;10.38;;;;;;;;;;4931728;29;20036;-61
2022/06/10 10:54:55;;;;;;;21.55;10.88;;;;;;;;;;4931591;29;20046;-62
2022/06/10 10:57:21;;;;;;;19.88;10.25;;;;;;;;;;4931131;29;20032;-63
2022/06/10 10:59:53;;;;;;;20.90;10.65;;;;;;;;;;4914390;29;20496;-62
2022/06/10 11:02:31;;;;;;;17.27;10.27;;;;;;;;;;4931222;29;20488;-63
2022/06/10 11:05:16;;;;;;;20.33;10.95;;;;;;;;;;4931028;29;20027;-62
2022/06/10 11:07:43;;;;;;;17.38;11.00;;;;;;;;;;4931302;29;20103;-63
2022/06/10 11:10:09;;;;;;;18.67;10.32;;;;;;;;;;4931293;29;20389;-62
2022/06/10 11:12:35;;;;;;;19.15;10.38;;;;;;;;;;4914521;29;20085;-62
2022/06/10 11:15:12;;;;;;;18.90;10.57;;;;;;;;;;4930701;29;20468;-62
2022/06/10 11:17:43;;;;;;;16.90;11.60;;;;;;;;;;4931110;29;20396;-63
2022/06/10 11:20:14;;;;;;;17.10;10.43;;;;;;;;;;4931939;29;20031;-63
2022/06/10 11:22:41;;;;;;;18.83;10.32;;;;;;;;;;4931261;29;20377;-63
2022/06/10 11:25:14;;;;;;;20.42;10.23;;;;;;;;;;4930750;29;20067;-59
2022/06/10 11:27:41;;;;;;;17.77;10.25;;;;;;;;;;4930210;29;20032;-63
2022/06/10 11:30:13;;;;;;;19.48;10.82;;;;;;;;;;4930725;29;20122;-63
2022/06/10 11:32:51;;;;;;;16.08;10.48;;;;;;;;;;4913811;29;20071;-61
2022/06/10 11:35:28;;;;;;;22.45;12.07;;;;;;;;;;4930465;29;20477;-62
2022/06/10 11:38:05;;;;;;;19.80;11.53;;;;;;;;;;4912926;29;20551;-64
2022/06/10 11:40:42;;;;;;;18.15;11.13;;;;;;;;;;4930860;29;20030;-63
2022/06/10 11:43:25;;;;;;;18.42;11.40;;;;;;;;;;4930479;29;20031;-61
2022/06/10 11:46:09;;;;;;;21.17;11.77;;;;;;;;;;4930610;29;20020;-62
2022/06/10 11:48:36;;;;;;;19.00;10.07;;;;;;;;;;4930521;29;20097;-63
2022/06/10 11:51:06;;;;;;;20.70;10.63;;;;;;;;;;4913608;29;20138;-61
2022/06/10 11:53:49;;;;;;;18.90;10.35;;;;;;;;;;4914009;29;20509;-63
2022/06/10 12:01:52;;;;;;;19.08;10.68;;;;;;;;;;4930845;29;20042;-64
2022/06/10 12:04:22;;;;;;;16.30;9.77;;;;;;;;;;4913599;29;20068;-63
2022/06/10 12:06:50;;;;;;;16.75;9.98;;;;;;;;;;4913156;29;20028;-63
2022/06/10 12:09:17;;;;;;;;;;;;;;;;;;4930653;29;20020;-62
2022/06/10 12:11:46;;;;;;;15.82;9.63;;;;;;;;;;4930813;29;19911;-61
2022/06/10 12:14:21;;;;;;;20.52;10.55;;;;;;;;;;4912586;29;20024;-60
2022/06/10 12:16:49;;;;;;;16.77;9.30;;;;;;;;;;4930665;29;20084;-61
2022/06/10 12:19:20;;;;;;;18.38;9.50;;;;;;;;;;4930104;29;20533;-61
2022/06/10 12:21:46;;;;;;;16.58;9.70;;;;;;;;;;4930400;29;20518;-58
2022/06/10 12:24:14;;;;;;;18.40;9.98;;;;;;;;;;4930263;29;20643;-61
2022/06/10 12:26:59;;;;;;;17.90;9.90;;;;;;;;;;4930293;29;20063;-60
2022/06/10 12:29:35;;;;;;;17.73;10.50;;;;;;;;;;4943005;29;20036;-62
2022/06/10 12:32:01;;;;;;;18.35;10.43;;;;;;;;;;4923960;29;20032;-62
2022/06/10 12:34:40;;;;;;;17.73;10.60;;;;;;;;;;4932723;29;20054;-62
2022/06/10 12:37:07;;;;;;;17.17;10.45;;;;;;;;;;4930331;29;20023;-64
2022/06/10 12:39:33;;;;;;;16.23;9.97;;;;;;;;;;4596744;28;9999598;-64
2022/06/10 12:42:15;;;;;;;17.35;10.32;;;;;;;;;;4952865;28;20031;-64
2022/06/10 12:44:45;;;;;;;16.08;10.13;;;;;;;;;;4961679;28;20120;-63
2022/06/10 12:47:12;;;;;;;16.33;9.93;;;;;;;;;;4951425;28;20340;-63
2022/06/10 12:49:41;;;;;;;15.55;9.95;;;;;;;;;;4951397;28;20592;-63
2022/06/10 12:52:16;;;;;;;17.20;10.05;;;;;;;;;;4949836;28;20036;-64
2022/06/10 12:54:42;;;;;;;19.80;10.85;;;;;;;;;;4949759;28;20023;-63
2022/06/10 12:57:30;;;;;;;19.42;10.50;;;;;;;;;;4958785;28;20509;-61
2022/06/10 13:00:14;;;;;;;16.50;10.88;;;;;;;;;;4969152;28;20113;-64
2022/06/10 13:02:48;;;;;;;17.30;11.30;;;;;;;;;;4969131;28;20447;-62
2022/06/10 13:05:20;;;;;;;18.42;11.07;;;;;;;;;;4968845;28;20035;-64
2022/06/10 13:07:47;;;;;;;17.88;10.73;;;;;;;;;;4968767;28;20019;-63
2022/06/10 13:10:29;;;;;;;17.20;10.65;;;;;;;;;;4951398;28;20053;-63
2022/06/10 13:12:59;;;;;;;16.52;10.35;;;;;;;;;;4968516;28;20520;-63
2022/06/10 13:15:30;;;;;;;16.95;10.73;;;;;;;;;;4949598;28;20035;-63
2022/06/10 13:18:04;;;;;;;16.25;11.20;;;;;;;;;;4949309;28;20051;-64
2022/06/10 13:20:37;;;;;;;17.63;11.02;;;;;;;;;;4949604;29;20057;-63
2022/06/10 13:23:08;;;;;;;16.73;10.60;;;;;;;;;;4949636;29;20070;-63
2022/06/10 13:25:35;;;;;;;16.27;10.63;;;;;;;;;;4970683;23;20024;-64
2022/06/10 13:28:01;;;;;;;17.75;11.02;;;;;;;;;;4970814;28;20035;-64
2022/06/10 13:30:29;;;;;;;17.55;10.32;;;;;;;;;;4973140;28;20076;-65
2022/06/10 13:32:56;;;;;;;15.82;9.82;;;;;;;;;;4972606;28;20031;-66
2022/06/10 13:35:42;;;;;;;18.02;10.35;;;;;;;;;;4972955;28;20034;-65
2022/06/10 13:38:10;;;;;;;17.75;10.68;;;;;;;;;;4928833;28;20089;-65
2022/06/10 13:40:38;;;;;;;17.30;11.20;;;;;;;;;;4953761;28;20027;-65
2022/06/10 13:43:04;;;;;;;17.20;10.52;;;;;;;;;;4959550;28;20063;-66
2022/06/10 13:45:36;;;;;;;19.27;11.95;;;;;;;;;;4973414;28;20034;-65
2022/06/10 13:48:15;;;;;;;19.83;11.98;;;;;;;;;;4973815;28;20030;-65
2022/06/10 13:53:52;;;;;;;16.50;11.40;;;;;;;;;;4973869;28;20395;-64
2022/06/10 13:56:24;;;;;;;16.88;11.23;;;;;;;;;;4973644;28;20046;-65
2022/06/10 13:58:54;;;;;;;17.23;11.75;;;;;;;;;;4972952;28;20482;-64
2022/06/10 14:01:22;;;;;;;17.40;11.07;;;;;;;;;;4972358;28;20037;-64
2022/06/10 14:03:52;;;;;;;18.63;11.23;;;;;;;;;;4973282;28;20027;-65
2022/06/10 14:06:24;;;;;;;18.50;11.30;;;;;;;;;;4972378;28;20206;-64
2022/06/10 14:08:58;;;;;;;17.98;11.52;;;;;;;;;;4972119;28;20057;-64
2022/06/10 14:11:26;;;;;;;15.68;10.55;;;;;;;;;;4972253;28;20088;-64
2022/06/10 14:13:54;;;;;;;18.05;11.18;;;;;;;;;;4952800;28;20110;-65
2022/06/10 14:16:21;;;;;;;17.30;10.95;;;;;;;;;;4951312;28;20034;-65
2022/06/10 14:18:48;;;;;;;17.50;11.52;;;;;;;;;;4952432;28;20036;-65
2022/06/10 14:21:14;;;;;;;16.75;10.93;;;;;;;;;;4953502;28;20438;-64
2022/06/10 14:24:00;;;;;;;17.40;11.70;;;;;;;;;;4952142;28;20125;-64
2022/06/10 14:26:26;;;;;;;21.90;11.30;;;;;;;;;;4953209;28;20054;-66
2022/06/10 14:28:54;;;;;;;19.15;11.50;;;;;;;;;;4966143;28;20036;-66
2022/06/10 14:31:30;;;;;;;19.15;11.25;;;;;;;;;;4932801;28;20151;-61
2022/06/10 14:33:58;;;;;;;18.73;11.65;;;;;;;;;;4930955;29;20055;-61
2022/06/10 14:36:25;;;;;;;16.83;11.50;;;;;;;;;;4930812;28;20070;-63
2022/06/10 14:39:03;;;;;;;18.35;12.18;;;;;;;;;;4930375;28;20075;-61
2022/06/10 14:41:29;;;;;;;18.13;11.32;;;;;;;;;;4965194;28;20511;-61
2022/06/10 14:43:59;;;;;;;19.63;12.13;;;;;;;;;;4961980;28;20406;-60
2022/06/10 14:46:25;;;;;;;17.98;11.13;;;;;;;;;;4951795;28;20110;-58
2022/06/10 14:48:51;;;;;;;20.35;12.07;;;;;;;;;;4968724;28;20030;-60
2022/06/10 14:51:17;;;;;;;17.48;11.13;;;;;;;;;;4968832;28;20097;-56